Time;durP1;ratioP1;P1;durP2;ratioP2;P2;SDS_P1;SDS_P2;PMS_P1;PMS_P2;Temp;Humidity;BMP_temperature;BMP_pressure;BME280_temperature;BME280_humidity;BME280_pressure;Samples;Min_cycle;Max_cycle;Signal;HPM_P1;HPM_P2
2022/06/30 00:00:33;;;;;;;9.93;8.93;;;;;;;20.89;66.93;100600.34;1791851;80;21224;-55
2022/06/30 00:03:38;;;;;;;10.30;9.25;;;;;;;20.90;67.02;100597.86;1791692;80;21217;-56
2022/06/30 00:06:44;;;;;;;10.68;9.58;;;;;;;20.91;67.05;100598.18;1791861;80;21400;-56
2022/06/30 00:09:50;;;;;;;10.93;9.85;;;;;;;20.90;67.13;100591.46;1791906;80;21201;-54
2022/06/30 00:12:56;;;;;;;12.88;9.88;;;;;;;20.91;67.21;100598.18;1775957;80;21213;-55
2022/06/30 00:16:01;;;;;;;12.03;9.28;;;;;;;20.94;67.31;100599.63;1794276;80;21260;-55
2022/06/30 00:19:08;;;;;;;14.40;9.18;;;;;;;20.92;67.30;100599.86;1794365;80;21181;-56
2022/06/30 00:22:15;;;;;;;12.25;9.65;;;;;;;20.90;67.34;100602.03;1794375;80;21213;-55
2022/06/30 00:25:22;;;;;;;10.78;9.65;;;;;;;20.90;67.39;100604.81;1794353;80;21331;-55
2022/06/30 00:28:28;;;;;;;10.35;8.60;;;;;;;20.90;67.54;100603.42;1794297;80;21173;-55
2022/06/30 00:31:33;;;;;;;9.13;8.25;;;;;;;20.93;67.60;100604.34;1794403;80;21568;-55
2022/06/30 00:34:40;;;;;;;10.72;8.50;;;;;;;20.94;67.62;100614.94;1773826;80;21324;-55
2022/06/30 00:37:46;;;;;;;9.65;7.65;;;;;;;20.95;67.71;100621.66;1794424;80;21209;-56
2022/06/30 00:40:54;;;;;;;12.15;8.63;;;;;;;20.97;67.67;100635.37;1794475;80;21363;-55
2022/06/30 00:44:00;;;;;;;10.50;8.55;;;;;;;20.98;67.74;100637.09;1776506;79;21190;-54
2022/06/30 00:47:06;;;;;;;9.68;7.92;;;;;;;21.01;67.80;100632.44;1794411;80;21194;-54
2022/06/30 00:50:13;;;;;;;8.53;7.62;;;;;;;21.03;67.82;100630.23;1794434;80;21213;-54
2022/06/30 00:53:18;;;;;;;8.43;7.12;;;;;;;21.05;67.86;100630.85;1794372;80;21198;-54
2022/06/30 00:56:25;;;;;;;13.65;8.20;;;;;;;21.05;67.86;100631.72;1794384;80;21572;-54
2022/06/30 00:59:31;;;;;;;8.18;7.10;;;;;;;21.06;67.86;100632.58;1794291;80;21232;-55
2022/06/30 01:02:37;;;;;;;8.23;7.42;;;;;;;21.07;67.87;100646.25;1794491;80;21348;-55
2022/06/30 01:05:44;;;;;;;7.97;7.17;;;;;;;21.08;67.98;100657.69;1794450;80;21362;-55
2022/06/30 01:08:52;;;;;;;8.50;6.97;;;;;;;21.09;68.08;100667.73;1794390;80;21177;-54
2022/06/30 01:15:24;;;;;;;9.58;7.87;;;;;;;21.08;68.08;100652.65;1791924;80;21351;-55
2022/06/30 01:18:31;;;;;;;11.97;8.48;;;;;;;21.07;68.07;100656.00;1791952;80;21319;-55
2022/06/30 01:21:38;;;;;;;8.95;7.58;;;;;;;21.07;68.15;100660.17;1791975;80;21347;-55
2022/06/30 01:24:45;;;;;;;9.80;7.92;;;;;;;21.04;68.17;100641.13;1775314;80;21256;-55
2022/06/30 01:27:52;;;;;;;9.05;7.95;;;;;;;21.02;68.11;100632.19;1791937;80;21173;-56
2022/06/30 01:30:59;;;;;;;10.08;8.75;;;;;;;20.98;68.08;100627.34;1791830;80;21241;-55
2022/06/30 01:34:04;;;;;;;9.50;8.40;;;;;;;20.97;68.23;100622.31;1791954;80;21181;-55
2022/06/30 01:37:10;;;;;;;14.00;8.33;;;;;;;20.95;68.26;100617.48;1791828;80;21182;-55
2022/06/30 01:40:17;;;;;;;10.88;8.35;;;;;;;20.94;68.37;100606.59;1773816;80;21237;-56
2022/06/30 01:43:23;;;;;;;8.95;7.97;;;;;;;20.94;68.50;100613.02;1791821;80;21202;-56
2022/06/30 01:46:29;;;;;;;10.68;8.03;;;;;;;20.93;68.57;100608.52;1791814;80;21272;-55
2022/06/30 01:49:37;;;;;;;8.90;8.05;;;;;;;20.92;68.60;100606.83;1791972;80;21186;-56
2022/06/30 01:52:43;;;;;;;10.85;8.08;;;;;;;20.90;68.60;100610.37;1763416;81;21173;-55
2022/06/30 01:55:49;;;;;;;8.88;7.90;;;;;;;20.90;68.67;100618.73;1791906;80;21201;-55
2022/06/30 01:58:54;;;;;;;9.28;8.28;;;;;;;20.89;68.75;100628.17;1774560;81;21169;-57
2022/06/30 02:02:00;;;;;;;11.73;8.78;;;;;;;20.91;68.88;100652.45;1791901;80;21173;-56
2022/06/30 02:05:06;;;;;;;11.45;8.15;;;;;;;20.90;68.95;100666.05;1791788;80;21197;-55
2022/06/30 02:08:13;;;;;;;10.55;7.37;;;;;;;20.83;68.94;100670.87;1791914;80;21327;-54
2022/06/30 02:11:20;;;;;;;10.00;6.58;;;;;;;20.72;68.89;100664.72;1791841;80;21213;-56
2022/06/30 02:14:26;;;;;;;8.95;6.53;;;;;;;20.62;68.93;100660.24;1791956;78;21332;-54
2022/06/30 02:17:33;;;;;;;8.33;6.00;;;;;;;20.52;68.89;100669.67;1791830;80;21197;-56
2022/06/30 02:20:38;;;;;;;8.80;6.20;;;;;;;20.38;68.86;100683.44;1773729;80;21276;-55
2022/06/30 02:23:44;;;;;;;7.90;6.35;;;;;;;20.20;68.84;100695.97;1791913;80;21181;-53
2022/06/30 02:26:52;;;;;;;13.18;7.22;;;;;;;20.01;68.98;100669.20;1791850;80;21184;-55
2022/06/30 02:30:02;;;;;;;13.13;8.08;;;;;;;19.93;69.17;100644.48;1774152;80;21351;-56
2022/06/30 02:33:08;;;;;;;12.58;7.03;;;;;;;19.90;69.34;100633.83;1791823;80;21205;-56
2022/06/30 02:36:15;;;;;;;9.28;6.72;;;;;;;19.88;69.42;100660.46;1791835;80;21205;-58
2022/06/30 02:39:21;;;;;;;13.40;7.60;;;;;;;19.84;69.42;100667.54;1791933;80;21347;-57
2022/06/30 02:42:27;;;;;;;9.18;6.90;;;;;;;19.83;69.52;100667.77;1791914;80;21311;-56
2022/06/30 02:45:33;;;;;;;9.10;6.90;;;;;;;19.82;69.60;100663.30;1791766;80;21205;-57
2022/06/30 02:48:39;;;;;;;11.50;7.42;;;;;;;19.83;69.75;100654.73;1792598;80;21197;-57
2022/06/30 02:51:46;;;;;;;11.10;7.78;;;;;;;19.88;69.89;100652.66;1796029;80;21193;-57
2022/06/30 02:54:51;;;;;;;10.75;7.15;;;;;;;19.91;69.94;100661.92;1796539;80;21721;-56
2022/06/30 02:57:57;;;;;;;8.73;7.03;;;;;;;19.96;70.00;100659.31;1796398;80;21194;-57
2022/06/30 03:01:05;;;;;;;9.00;6.83;;;;;;;19.97;69.99;100666.55;1795950;80;21870;-58
2022/06/30 03:04:11;;;;;;;8.83;6.72;;;;;;;19.99;70.05;100665.27;1796821;80;21178;-57
2022/06/30 03:07:17;;;;;;;10.80;6.72;;;;;;;20.00;70.02;100648.02;1795966;80;21331;-57
2022/06/30 03:10:23;;;;;;;12.03;6.90;;;;;;;20.01;70.09;100647.79;1796270;80;21363;-57
2022/06/30 03:13:33;;;;;;;10.88;7.47;;;;;;;20.03;70.15;100651.20;1796747;80;21177;-56
2022/06/30 03:16:41;;;;;;;9.03;7.35;;;;;;;20.04;70.16;100652.06;1796377;80;21185;-58
2022/06/30 03:19:46;;;;;;;16.77;8.08;;;;;;;20.07;70.17;100657.15;1796195;80;21244;-58
2022/06/30 03:22:54;;;;;;;9.03;6.95;;;;;;;20.07;70.14;100662.18;1796324;80;21181;-58
2022/06/30 03:26:00;;;;;;;8.95;7.25;;;;;;;20.08;70.14;100661.62;1796402;80;21197;-58
2022/06/30 03:29:06;;;;;;;11.22;6.75;;;;;;;20.03;70.11;100660.92;1796961;80;21311;-58
2022/06/30 03:32:13;;;;;;;10.05;7.40;;;;;;;20.00;70.14;100660.53;1796603;80;21185;-58
2022/06/30 03:35:20;;;;;;;11.90;8.05;;;;;;;20.02;70.19;100666.72;1796232;80;21235;-58
2022/06/30 03:38:26;;;;;;;10.28;7.37;;;;;;;20.00;70.17;100676.67;1796504;80;21205;-58
2022/06/30 03:41:34;;;;;;;17.30;7.35;;;;;;;20.01;70.21;100666.42;1796418;80;21210;-56
2022/06/30 03:44:42;;;;;;;11.40;7.10;;;;;;;20.00;70.25;100666.95;1796210;80;21675;-56
2022/06/30 03:47:48;;;;;;;11.28;7.22;;;;;;;20.01;70.34;100660.86;1796284;80;21189;-57
2022/06/30 03:50:53;;;;;;;11.97;8.65;;;;;;;20.03;70.43;100678.13;1796403;80;21244;-58
2022/06/30 03:53:59;;;;;;;10.45;7.78;;;;;;;20.03;70.42;100687.86;1796596;80;21181;-57
2022/06/30 03:57:07;;;;;;;10.63;8.13;;;;;;;20.00;70.32;100694.74;1796287;80;21224;-58
2022/06/30 04:00:14;;;;;;;8.73;7.60;;;;;;;19.97;70.28;100695.73;1796841;80;21339;-58
2022/06/30 04:03:22;;;;;;;10.15;7.85;;;;;;;19.99;70.45;100690.80;1796388;80;21181;-58
2022/06/30 04:06:27;;;;;;;12.88;8.60;;;;;;;20.02;70.63;100691.73;1797061;80;21587;-57
2022/06/30 04:09:34;;;;;;;10.78;8.03;;;;;;;20.06;70.78;100683.27;1796504;80;21205;-57
2022/06/30 04:12:40;;;;;;;14.07;8.15;;;;;;;20.08;70.79;100682.47;1796266;80;21703;-58
2022/06/30 04:15:47;;;;;;;10.15;8.00;;;;;;;20.10;70.83;100678.39;1763650;80;21209;-58
2022/06/30 04:18:53;;;;;;;9.95;8.08;;;;;;;20.14;70.88;100667.14;1769721;80;21543;-57
2022/06/30 04:22:00;;;;;;;9.58;8.40;;;;;;;20.15;70.88;100659.09;1789956;80;21311;-57
2022/06/30 04:25:06;;;;;;;11.70;8.70;;;;;;;20.18;70.90;100656.42;1796305;80;21193;-57
2022/06/30 04:28:12;;;;;;;11.00;8.68;;;;;;;20.22;70.96;100659.89;1796547;80;21145;-57
2022/06/30 04:34:43;;;;;;;10.98;8.08;;;;;;;20.33;71.01;100666.59;1796459;80;21256;-56
2022/06/30 04:37:49;;;;;;;12.78;8.28;;;;;;;20.41;70.90;100662.11;1795926;80;21248;-55
2022/06/30 04:44:21;;;;;;;11.88;7.58;;;;;;;20.55;70.94;100670.63;1796401;80;21225;-56
2022/06/30 04:47:28;;;;;;;10.40;7.75;;;;;;;20.65;70.98;100670.90;1796754;80;21730;-56
2022/06/30 04:50:35;;;;;;;12.00;7.62;;;;;;;20.73;70.91;100671.97;1795782;80;21355;-54
2022/06/30 04:53:43;;;;;;;11.08;7.25;;;;;;;20.77;70.76;100672.66;1795483;80;21818;-55
2022/06/30 04:56:58;;;;;;;11.50;7.97;;;;;;;20.72;70.51;100678.06;1795804;80;21181;-54
2022/06/30 05:00:14;;;;;;;9.25;6.80;;;;;;;20.74;70.62;100697.31;1706527;82;21223;-55
2022/06/30 05:03:21;;;;;;;14.25;7.60;;;;;;;20.75;70.52;100701.81;1689853;83;21188;-52
2022/06/30 05:06:26;;;;;;;11.75;7.60;;;;;;;20.74;70.40;100705.66;1691462;83;21216;-52
2022/06/30 05:09:39;;;;;;;12.23;7.47;;;;;;;20.74;70.45;100705.66;1662328;83;21234;-51
2022/06/30 05:12:46;;;;;;;11.65;6.97;;;;;;;20.79;70.58;100716.94;1691578;84;21251;-50
2022/06/30 05:15:59;;;;;;;14.13;6.87;;;;;;;20.73;70.26;100725.70;1690884;83;21251;-53
2022/06/30 05:19:08;;;;;;;11.03;7.17;;;;;;;20.65;70.23;100727.94;1692281;84;21362;-54
2022/06/30 05:22:15;;;;;;;12.00;6.92;;;;;;;20.71;70.47;100726.47;1720170;83;21213;-51
2022/06/30 05:28:45;;;;;;;8.53;5.83;;;;;;;20.87;70.45;100722.19;1662783;86;21255;-52
2022/06/30 05:31:53;;;;;;;9.18;6.35;;;;;;;20.93;70.37;100719.02;1685380;84;21373;-52
2022/06/30 05:35:00;;;;;;;8.33;6.17;;;;;;;20.98;70.32;100731.73;1662615;85;21260;-52
2022/06/30 05:38:07;;;;;;;8.48;6.10;;;;;;;20.99;70.25;100721.75;1673810;84;22061;-51
2022/06/30 05:41:13;;;;;;;9.08;6.10;;;;;;;20.97;70.09;100733.66;1687965;84;21226;-54
2022/06/30 05:44:24;;;;;;;10.60;5.90;;;;;;;20.96;70.11;100733.36;1688437;85;21764;-51
2022/06/30 05:47:30;;;;;;;9.45;5.55;;;;;;;20.95;70.11;100736.34;1690851;84;21819;-54
2022/06/30 05:50:36;;;;;;;6.87;5.03;;;;;;;20.96;70.15;100743.11;1671287;84;21252;-52
2022/06/30 05:53:43;;;;;;;9.18;5.05;;;;;;;20.99;70.10;100743.16;1655043;86;21260;-51
2022/06/30 05:56:49;;;;;;;10.05;5.78;;;;;;;21.02;70.09;100737.98;1669669;85;21201;-52
2022/06/30 05:59:57;;;;;;;9.55;5.87;;;;;;;21.04;70.07;100741.36;1671569;84;21654;-53
2022/06/30 06:03:01;;;;;;;8.10;5.75;;;;;;;21.13;70.07;100743.28;1685626;83;21237;-53
2022/06/30 06:06:07;;;;;;;8.55;5.85;;;;;;;21.16;69.89;100735.31;1675834;83;21196;-53
2022/06/30 06:09:12;;;;;;;9.85;5.87;;;;;;;21.20;69.95;100744.88;1683462;84;21235;-53
2022/06/30 06:12:21;;;;;;;13.60;5.47;;;;;;;21.30;70.07;100738.74;1652746;87;21229;-53
2022/06/30 06:15:31;;;;;;;11.85;7.70;;;;;;;21.47;70.24;100732.27;1683935;83;21251;-52
2022/06/30 06:18:46;;;;;;;8.70;6.25;;;;;;;21.67;70.24;100736.13;1690695;83;21276;-54
2022/06/30 06:22:04;;;;;;;17.07;6.37;;;;;;;21.84;70.17;100736.62;1663667;86;21582;-53
2022/06/30 06:25:13;;;;;;;13.55;6.55;;;;;;;22.02;70.17;100732.88;1687332;84;21756;-53
2022/06/30 06:31:47;;;;;;;9.95;6.70;;;;;;;22.29;69.93;100722.08;1640246;86;21510;-55
2022/06/30 06:34:55;;;;;;;8.45;6.12;;;;;;;22.47;69.99;100725.56;1669861;83;21221;-53
2022/06/30 06:38:07;;;;;;;12.28;6.50;;;;;;;22.65;69.99;100724.06;1692341;83;21753;-53
2022/06/30 06:41:15;;;;;;;8.20;6.85;;;;;;;22.75;69.82;100724.28;1699167;83;21649;-54
2022/06/30 06:44:25;;;;;;;9.15;6.58;;;;;;;22.84;69.77;100717.75;1718937;82;21748;-55
2022/06/30 06:47:32;;;;;;;12.50;6.80;;;;;;;22.98;69.81;100724.73;1673508;85;21256;-56
2022/06/30 06:50:39;;;;;;;11.28;7.10;;;;;;;23.11;69.70;100723.05;1696877;82;21807;-54
2022/06/30 06:53:48;;;;;;;12.37;7.15;;;;;;;23.15;69.40;100713.92;1674442;84;21255;-55
2022/06/30 06:56:55;;;;;;;8.33;6.28;;;;;;;23.29;69.46;100718.70;1674866;83;21762;-53
2022/06/30 07:00:17;;;;;;;12.60;6.65;;;;;;;23.38;69.22;100712.45;1676011;85;21225;-56
2022/06/30 07:03:23;;;;;;;13.75;6.65;;;;;;;23.47;69.16;100708.14;1703302;82;21193;-55
2022/06/30 07:06:28;;;;;;;8.70;6.17;;;;;;;23.60;69.15;100705.03;1710635;82;21924;-54
2022/06/30 07:09:35;;;;;;;10.05;6.00;;;;;;;23.72;69.10;100710.55;1688869;83;21217;-54
2022/06/30 07:12:41;;;;;;;10.30;5.80;;;;;;;23.78;68.97;100705.34;1710851;81;21187;-53
2022/06/30 07:15:48;;;;;;;11.70;6.05;;;;;;;23.80;68.85;100696.12;1690992;82;21239;-54
2022/06/30 07:18:57;;;;;;;8.90;5.40;;;;;;;23.87;68.86;100694.01;1710865;82;21606;-55
2022/06/30 07:22:04;;;;;;;10.20;5.85;;;;;;;24.01;68.90;100700.12;1662770;84;21220;-55
2022/06/30 07:25:12;;;;;;;13.05;5.97;;;;;;;24.12;68.81;100693.61;1667666;85;21233;-55
2022/06/30 07:28:19;;;;;;;12.43;6.70;;;;;;;24.26;68.97;100690.73;1696258;83;21341;-55
2022/06/30 07:31:27;;;;;;;10.25;6.12;;;;;;;24.37;68.87;100690.60;1674576;85;21240;-54
2022/06/30 07:34:32;;;;;;;8.50;6.55;;;;;;;24.40;68.63;100687.31;1676722;84;21212;-55
2022/06/30 07:37:38;;;;;;;10.85;7.00;;;;;;;24.45;68.62;100688.77;1683291;82;21272;-55
2022/06/30 07:40:45;;;;;;;10.15;6.40;;;;;;;24.48;68.68;100688.23;1705312;82;21232;-55
2022/06/30 07:44:08;;;;;;;10.68;6.75;;;;;;;24.52;68.66;100686.63;1677198;83;21324;-56
2022/06/30 07:47:18;;;;;;;10.38;6.78;;;;;;;24.54;68.68;100693.37;1693958;84;21213;-53
2022/06/30 07:50:24;;;;;;;8.50;6.22;;;;;;;24.53;68.63;100689.71;1710221;84;21259;-51
2022/06/30 07:53:30;;;;;;;10.23;6.47;;;;;;;24.50;68.61;100688.83;1668789;85;21738;-53
2022/06/30 07:56:36;;;;;;;11.85;5.95;;;;;;;24.50;68.61;100684.64;1660938;84;21249;-55
2022/06/30 07:59:41;;;;;;;13.00;6.25;;;;;;;24.50;68.70;100683.78;1675594;84;21809;-52
2022/06/30 08:02:48;;;;;;;8.63;6.55;;;;;;;24.50;68.70;100688.83;1686706;83;21809;-54
2022/06/30 08:05:54;;;;;;;11.43;5.85;;;;;;;24.51;68.74;100691.09;1718258;82;21219;-53
2022/06/30 08:09:01;;;;;;;19.65;13.80;;;;;;;24.55;68.76;100700.11;1668576;83;21223;-55
2022/06/30 08:12:10;;;;;;;12.35;6.42;;;;;;;24.67;68.85;100692.45;1688518;83;21236;-58
2022/06/30 08:15:17;;;;;;;10.05;5.30;;;;;;;24.81;68.84;100691.52;1707661;82;21260;-57
2022/06/30 08:18:24;;;;;;;12.07;8.35;;;;;;;24.91;68.87;100693.88;1708008;84;21278;-58
2022/06/30 08:21:32;;;;;;;8.30;5.72;;;;;;;25.09;68.94;100692.69;1708585;82;21236;-59
2022/06/30 08:24:38;;;;;;;7.30;5.30;;;;;;;25.22;68.72;100695.08;1706225;83;21757;-57
2022/06/30 08:27:44;;;;;;;8.53;4.87;;;;;;;25.26;68.54;100705.22;1682598;85;21251;-57
2022/06/30 08:30:51;;;;;;;7.70;5.45;;;;;;;25.34;68.51;100708.98;1678691;84;21224;-58
2022/06/30 08:33:56;;;;;;;9.40;5.17;;;;;;;25.45;68.63;100710.77;1685284;84;21229;-60
2022/06/30 08:37:02;;;;;;;9.53;6.28;;;;;;;25.54;68.59;100711.97;1679665;83;21206;-60
2022/06/30 08:43:34;;;;;;;7.62;5.50;;;;;;;25.45;68.26;100705.16;1697832;83;21329;-55
2022/06/30 08:46:39;;;;;;;9.15;5.17;;;;;;;25.33;68.01;100707.23;1697943;83;21260;-56
2022/06/30 08:49:47;;;;;;;6.42;5.05;;;;;;;25.12;67.83;100702.54;1676780;84;21284;-58
2022/06/30 08:53:00;;;;;;;7.58;5.28;;;;;;;25.09;68.07;100708.09;1676217;85;21256;-54
2022/06/30 08:56:06;;;;;;;11.18;7.58;;;;;;;25.25;68.30;100724.52;1676846;84;21371;-53
2022/06/30 08:59:13;;;;;;;5.80;4.70;;;;;;;25.38;68.19;100714.33;1677048;85;21273;-53
2022/06/30 09:02:22;;;;;;;6.05;4.90;;;;;;;25.52;68.23;100721.20;1680883;84;21233;-55
2022/06/30 09:05:28;;;;;;;10.40;5.30;;;;;;;25.68;68.35;100720.23;1680068;84;21221;-55
2022/06/30 09:08:36;;;;;;;8.95;6.00;;;;;;;25.88;68.42;100717.59;1697642;84;21404;-54
2022/06/30 09:11:58;;;;;;;12.73;7.83;;;;;;;26.05;68.32;100719.76;1698748;83;21216;-56
2022/06/30 09:15:05;;;;;;;19.70;9.25;;;;;;;26.21;68.21;100717.36;1662025;86;21309;-54
2022/06/30 09:18:12;;;;;;;20.30;9.53;;;;;;;26.30;67.98;100712.37;1672711;86;21209;-54
2022/06/30 09:21:26;;;;;;;15.98;8.25;;;;;;;26.41;67.76;100711.86;1686351;84;21260;-54
2022/06/30 09:24:32;;;;;;;16.87;7.85;;;;;;;26.57;67.73;100712.23;1652443;84;21208;-53
2022/06/30 09:27:42;;;;;;;14.00;6.67;;;;;;;26.73;67.51;100710.38;1644998;87;21237;-54
2022/06/30 09:30:48;;;;;;;10.98;5.97;;;;;;;26.80;67.40;100709.58;1634533;87;21242;-54
2022/06/30 09:33:55;;;;;;;11.57;5.78;;;;;;;26.78;67.03;100711.27;1645214;87;21556;-54
2022/06/30 09:37:03;;;;;;;13.40;6.92;;;;;;;26.78;66.85;100700.58;1645824;86;21774;-54
2022/06/30 09:40:10;;;;;;;8.78;6.53;;;;;;;26.74;66.59;100696.06;1692740;83;21692;-53
2022/06/30 09:43:17;;;;;;;7.85;5.22;;;;;;;26.72;66.62;100698.28;1719544;83;21207;-54
2022/06/30 09:46:23;;;;;;;10.88;7.15;;;;;;;26.70;66.58;100703.36;1713822;82;21205;-53
2022/06/30 09:49:48;;;;;;;8.48;5.28;;;;;;;26.75;66.73;100696.33;1697542;82;21256;-53
2022/06/30 09:53:25;;;;;;;11.83;6.35;;;;;;;26.83;66.64;100693.58;1706308;82;21594;-51
2022/06/30 09:56:30;;;;;;;15.95;5.60;;;;;;;26.85;66.51;100692.17;1710332;82;21272;-53
2022/06/30 09:59:37;;;;;;;12.63;6.00;;;;;;;26.92;66.50;100694.18;1682056;82;21229;-52
2022/06/30 10:02:52;;;;;;;7.87;5.37;;;;;;;26.99;66.45;100707.39;1711358;82;21213;-50
2022/06/30 10:06:18;;;;;;;11.05;5.37;;;;;;;26.94;66.18;100694.72;1703967;84;21300;-51
2022/06/30 10:09:23;;;;;;;;;;;;;;;26.97;66.23;100689.13;1707021;82;21236;-51
2022/06/30 10:12:32;;;;;;;10.10;5.37;;;;;;;27.00;66.04;100693.65;1701770;82;20255;-49
2022/06/30 10:15:39;;;;;;;7.47;5.62;;;;;;;27.07;66.13;100688.59;1703049;84;21206;-51
2022/06/30 10:18:47;;;;;;;8.08;5.53;;;;;;;27.16;65.97;100690.31;1694519;83;21203;-47
2022/06/30 10:21:52;;;;;;;9.33;5.08;;;;;;;27.17;65.85;100692.84;1707440;83;21744;-48
2022/06/30 10:24:59;;;;;;;9.38;5.58;;;;;;;27.26;65.84;100692.61;1691843;84;21279;-47
2022/06/30 10:28:06;;;;;;;6.92;5.10;;;;;;;27.39;65.74;100704.73;1686897;83;21203;-48
2022/06/30 10:31:21;;;;;;;8.53;6.10;;;;;;;27.44;65.69;100691.23;1674456;85;21237;-48
2022/06/30 10:34:34;;;;;;;11.30;5.70;;;;;;;27.56;65.62;100693.21;1703463;83;21245;-50
2022/06/30 10:37:47;;;;;;;11.85;6.65;;;;;;;27.66;65.58;100690.42;1703794;84;21181;-49
2022/06/30 10:41:18;;;;;;;8.60;5.65;;;;;;;27.72;65.37;100688.73;1712988;82;21264;-49
2022/06/30 10:44:32;;;;;;;10.80;5.40;;;;;;;27.69;65.10;100685.63;1649473;86;21205;-51
2022/06/30 10:47:44;;;;;;;10.80;5.75;;;;;;;27.70;65.07;100688.75;1650044;86;21196;-51
2022/06/30 10:50:54;;;;;;;8.13;5.50;;;;;;;27.66;64.87;100689.87;1620063;86;21808;-52
2022/06/30 10:54:05;;;;;;;7.40;5.30;;;;;;;27.70;64.80;100678.90;1705038;83;21210;-51
2022/06/30 10:57:17;;;;;;;6.47;5.40;;;;;;;27.69;64.58;100683.67;1677698;84;22004;-49
2022/06/30 11:01:06;;;;;;;7.95;5.50;;;;;;;27.74;64.51;100680.02;1706059;82;21307;-49
2022/06/30 11:04:19;;;;;;;7.55;4.55;;;;;;;27.80;64.34;100672.70;1709610;82;21265;-51
2022/06/30 11:07:29;;;;;;;9.35;4.67;;;;;;;27.95;64.24;100678.06;1706455;84;21288;-51
2022/06/30 11:10:37;;;;;;;8.50;4.67;;;;;;;28.07;64.29;100673.01;1705061;82;22037;-49
2022/06/30 11:13:47;;;;;;;5.87;3.87;;;;;;;28.17;64.06;100675.78;1730942;82;21254;-50
2022/06/30 11:16:53;;;;;;;6.62;4.60;;;;;;;28.19;63.63;100679.16;1741046;82;21612;-48
2022/06/30 11:20:13;;;;;;;6.20;4.37;;;;;;;28.11;63.51;100674.97;1740767;82;21222;-50
2022/06/30 11:23:21;;;;;;;6.12;4.25;;;;;;;28.09;63.41;100678.62;1739795;82;21187;-49
2022/06/30 11:30:15;;;;;;;7.85;4.72;;;;;;;28.28;63.43;100676.89;1671661;84;21808;-49
2022/06/30 11:33:20;;;;;;;9.00;3.95;;;;;;;28.47;63.30;100674.30;1690452;82;21215;-50
2022/06/30 11:36:28;;;;;;;8.85;4.70;;;;;;;28.58;63.00;100670.35;1702418;82;21807;-50
2022/06/30 11:39:36;;;;;;;8.95;4.40;;;;;;;28.56;62.52;100665.59;1677989;85;21694;-48
2022/06/30 11:42:42;;;;;;;6.45;4.50;;;;;;;28.54;62.32;100670.66;1665592;84;21209;-49
2022/06/30 11:45:48;;;;;;;6.08;3.98;;;;;;;28.39;62.04;100665.03;1662146;84;21249;-53
2022/06/30 11:48:53;;;;;;;6.97;4.30;;;;;;;28.38;62.07;100661.95;1635845;85;21234;-53
2022/06/30 11:52:02;;;;;;;6.12;4.30;;;;;;;28.46;62.06;100659.39;1668333;85;21205;-52
2022/06/30 11:55:17;;;;;;;12.25;9.13;;;;;;;28.63;62.10;100659.07;1668697;86;21261;-54
2022/06/30 11:58:24;;;;;;;11.00;4.90;;;;;;;28.74;61.96;100657.89;1668515;86;21273;-53
2022/06/30 12:01:30;;;;;;;6.62;4.25;;;;;;;28.70;61.52;100661.02;1667383;86;21264;-53
2022/06/30 12:04:37;;;;;;;8.30;4.45;;;;;;;28.53;61.04;100661.91;1667447;86;21236;-53
2022/06/30 12:07:45;;;;;;;7.10;4.47;;;;;;;28.44;60.93;100652.34;1656461;85;21203;-53
2022/06/30 12:10:56;;;;;;;5.08;4.40;;;;;;;28.50;60.93;100658.27;1641391;87;21192;-53
2022/06/30 12:14:02;;;;;;;5.75;4.15;;;;;;;28.62;61.02;100658.80;1666651;85;21281;-52
2022/06/30 12:17:07;;;;;;;7.33;4.10;;;;;;;28.80;61.01;100652.50;1648437;84;21332;-54
2022/06/30 12:20:12;;;;;;;6.92;4.08;;;;;;;28.85;60.68;100652.48;1655179;84;21269;-53
2022/06/30 12:23:21;;;;;;;6.10;4.28;;;;;;;28.73;60.26;100650.58;1653911;84;21216;-54
2022/06/30 12:26:32;;;;;;;6.40;4.50;;;;;;;28.57;59.98;100648.95;1617882;88;21224;-53
2022/06/30 12:29:40;;;;;;;5.17;3.92;;;;;;;28.63;60.11;100654.84;1674591;84;21785;-54
2022/06/30 12:32:51;;;;;;;7.95;4.40;;;;;;;28.83;60.06;100647.69;1677028;84;21295;-53
2022/06/30 12:35:57;;;;;;;6.95;4.55;;;;;;;28.84;59.72;100647.41;1672455;83;21244;-53
2022/06/30 12:39:20;;;;;;;7.58;4.50;;;;;;;28.70;59.45;100649.16;1650633;84;21244;-48
2022/06/30 12:42:26;;;;;;;6.70;4.60;;;;;;;28.50;59.18;100645.03;1654796;84;21260;-50
2022/06/30 12:46:04;;;;;;;9.83;4.60;;;;;;;28.34;59.18;100644.77;1663654;85;21253;-49
2022/06/30 12:49:31;;;;;;;6.90;4.67;;;;;;;28.40;59.24;100637.16;1701945;84;21217;-50
2022/06/30 12:52:41;;;;;;;9.05;4.87;;;;;;;28.62;59.33;100630.63;1687302;83;21346;-51
2022/06/30 12:56:10;;;;;;;6.05;4.65;;;;;;;28.72;59.04;100639.02;1669204;84;21245;-51
2022/06/30 12:59:20;;;;;;;6.87;4.33;;;;;;;28.54;58.67;100642.48;1672353;85;21217;-50
2022/06/30 13:02:28;;;;;;;7.60;4.28;;;;;;;28.37;58.54;100637.73;1671044;85;21389;-53
2022/06/30 13:05:35;;;;;;;8.20;4.75;;;;;;;28.36;58.64;100638.30;1701407;84;21392;-51
2022/06/30 13:08:46;;;;;;;5.33;4.45;;;;;;;28.43;58.61;100635.17;1646839;87;21762;-48
2022/06/30 13:12:01;;;;;;;8.70;4.10;;;;;;;28.46;58.42;100631.22;1673824;83;21287;-49
2022/06/30 13:15:07;;;;;;;5.85;4.40;;;;;;;28.54;58.29;100625.00;1721287;83;21242;-49
2022/06/30 13:18:15;;;;;;;12.18;5.12;;;;;;;28.57;58.03;100620.78;1674314;84;21773;-48
2022/06/30 13:21:25;;;;;;;7.40;4.90;;;;;;;28.44;57.75;100629.25;1720641;82;21668;-51
2022/06/30 13:24:35;;;;;;;7.72;4.75;;;;;;;28.46;57.81;100627.55;1696108;82;21412;-52
2022/06/30 13:27:45;;;;;;;6.05;4.47;;;;;;;28.47;57.79;100624.45;1677849;85;21716;-53
2022/06/30 13:30:54;;;;;;;9.75;4.62;;;;;;;28.58;57.76;100622.45;1677950;85;21376;-52
2022/06/30 13:34:02;;;;;;;9.03;5.28;;;;;;;28.71;57.68;100619.02;1698154;82;21272;-52
2022/06/30 13:37:08;;;;;;;6.42;5.10;;;;;;;28.87;57.69;100613.03;1712195;82;21221;-51
2022/06/30 13:40:20;;;;;;;6.50;4.70;;;;;;;28.99;57.61;100612.66;1704800;84;21233;-53
2022/06/30 13:43:28;;;;;;;6.03;4.62;;;;;;;28.97;57.28;100609.30;1704835;83;21971;-51
2022/06/30 13:46:36;;;;;;;9.88;5.25;;;;;;;28.90;56.93;100614.41;1705893;84;21236;-51
2022/06/30 13:49:45;;;;;;;6.08;4.85;;;;;;;28.78;56.83;100607.70;1705873;84;21796;-50
2022/06/30 13:52:51;;;;;;;8.58;4.55;;;;;;;28.82;56.89;100602.33;1707056;82;21189;-53
2022/06/30 13:55:57;;;;;;;7.62;4.00;;;;;;;28.84;56.72;100602.89;1700910;82;21406;-53
2022/06/30 13:59:05;;;;;;;9.80;5.53;;;;;;;28.84;56.72;100602.89;1700310;82;21793;-53
2022/06/30 14:02:12;;;;;;;5.55;4.20;;;;;;;28.90;56.63;100605.95;1688087;84;21280;-54
2022/06/30 14:05:18;;;;;;;10.50;4.62;;;;;;;28.85;56.37;100607.38;1699381;82;21248;-58
2022/06/30 14:08:26;;;;;;;7.95;4.72;;;;;;;28.84;56.25;100611.34;1701327;82;21225;-55
2022/06/30 14:11:33;;;;;;;5.83;4.78;;;;;;;28.75;56.05;100608.84;1704205;83;21222;-57
2022/06/30 14:14:39;;;;;;;10.28;4.47;;;;;;;28.66;55.91;100610.58;1674372;83;21308;-57
2022/06/30 14:17:48;;;;;;;9.60;4.67;;;;;;;28.62;55.83;100609.49;1720498;83;21196;-55
2022/06/30 14:20:56;;;;;;;8.18;4.05;;;;;;;28.66;55.97;100606.36;1655367;84;21873;-56
2022/06/30 14:24:04;;;;;;;8.75;4.10;;;;;;;28.69;55.81;100605.22;1706655;82;21745;-55
2022/06/30 14:27:10;;;;;;;5.67;3.83;;;;;;;28.73;55.78;100605.48;1645080;84;21742;-56
2022/06/30 14:30:19;;;;;;;8.78;4.30;;;;;;;28.69;55.51;100595.91;1685072;83;21216;-57
2022/06/30 14:33:23;;;;;;;155.18;124.97;;;;;;;28.68;55.45;100598.47;1707097;82;21206;-54
2022/06/30 14:36:37;;;;;;;12.37;9.23;;;;;;;28.69;55.41;100593.09;1741942;82;21560;-56
2022/06/30 14:39:43;;;;;;;8.85;4.97;;;;;;;28.81;55.44;100586.56;1742477;82;21765;-55
2022/06/30 14:42:58;;;;;;;6.37;4.08;;;;;;;28.84;55.19;100587.39;1742382;82;21261;-56
2022/06/30 14:46:07;;;;;;;5.28;3.95;;;;;;;28.66;54.73;100583.25;1739281;82;21234;-55
2022/06/30 14:49:14;;;;;;;9.33;5.70;;;;;;;28.66;54.73;100583.25;1739176;82;21246;-55
2022/06/30 14:52:22;;;;;;;5.80;4.87;;;;;;;28.69;54.90;100586.05;1683081;84;21329;-54
2022/06/30 14:55:29;;;;;;;6.28;4.35;;;;;;;28.72;54.78;100589.69;1683338;84;21244;-56